createdAt,value
2017-09-17T00:00:29.719Z,-4.16
2017-09-17T00:01:24.768Z,-4.16
2017-09-17T00:02:25.759Z,-4.16
2017-09-17T00:03:25.804Z,-4.16
2017-09-17T00:04:20.782Z,-4.16
2017-09-17T00:05:21.238Z,-4.16
2017-09-17T00:06:14.877Z,-4.16
2017-09-17T00:07:14.927Z,-4.16
2017-09-17T00:08:09.921Z,-4.16
2017-09-17T00:09:04.963Z,-4.16
2017-09-17T00:10:04.964Z,-4.16
2017-09-17T00:11:00.059Z,-4.16
2017-09-17T00:11:55.063Z,-4.16
2017-09-17T00:12:55.073Z,-4.16
2017-09-17T00:13:50.169Z,-4.16
2017-09-17T00:14:45.180Z,-4.16
2017-09-17T00:15:46.418Z,-4.16
2017-09-17T00:16:46.291Z,-4.16
2017-09-17T00:17:46.264Z,-4.16
2017-09-17T00:18:41.258Z,-4.16
2017-09-17T00:19:35.572Z,-4.16
2017-09-17T00:20:35.353Z,-4.16
2017-09-17T00:21:30.344Z,-4.16
2017-09-17T00:22:30.411Z,-4.16
2017-09-17T00:23:24.376Z,-4.16
2017-09-17T00:24:24.456Z,-4.17
2017-09-17T00:25:19.453Z,-4.17
2017-09-17T00:26:14.506Z,-4.17
2017-09-17T00:27:14.555Z,-4.17
2017-09-17T00:28:09.692Z,-4.17
2017-09-17T00:29:04.616Z,-4.17
2017-09-17T00:30:05.629Z,-4.17
2017-09-17T00:31:05.737Z,-4.17
2017-09-17T00:32:05.646Z,-4.17
2017-09-17T00:33:00.709Z,-4.17
2017-09-17T00:33:54.734Z,-4.17
2017-09-17T00:34:54.976Z,-4.17
2017-09-17T00:35:49.776Z,-4.17
2017-09-17T00:36:49.814Z,-4.17
2017-09-17T00:37:43.849Z,-4.17
2017-09-17T00:38:43.870Z,-4.17
2017-09-17T00:39:38.964Z,-4.17
2017-09-17T00:40:33.969Z,-4.17
2017-09-17T00:41:33.951Z,-4.17
2017-09-17T00:42:29.021Z,-4.17
2017-09-17T00:43:24.013Z,-4.17
2017-09-17T00:44:25.113Z,-4.17
2017-09-17T00:45:25.122Z,-4.17
2017-09-17T00:46:25.195Z,-4.17
2017-09-17T00:47:20.251Z,-4.17
2017-09-17T00:48:14.193Z,-4.17
2017-09-17T00:49:14.583Z,-4.17
2017-09-17T00:50:09.274Z,-4.17
2017-09-17T00:51:09.240Z,-4.17
2017-09-17T00:52:03.302Z,-4.17
2017-09-17T00:53:03.350Z,-4.17
2017-09-17T00:53:58.332Z,-4.17
2017-09-17T00:54:53.363Z,-4.17
2017-09-17T00:55:53.406Z,-4.17
2017-09-17T00:56:48.511Z,-4.17
2017-09-17T00:57:43.474Z,-4.17
2017-09-17T00:58:44.512Z,-4.17
2017-09-17T00:59:44.632Z,-4.17
2017-09-17T01:00:44.563Z,-4.17
2017-09-17T01:01:39.614Z,-4.17
2017-09-17T01:02:33.791Z,-4.17
2017-09-17T01:03:33.733Z,-4.17
2017-09-17T01:04:28.674Z,-4.17
2017-09-17T01:05:28.736Z,-4.17
2017-09-17T01:06:22.745Z,-4.17
2017-09-17T01:07:22.798Z,-4.17
2017-09-17T01:08:17.830Z,-4.17
2017-09-17T01:09:17.863Z,-4.17
2017-09-17T01:10:17.867Z,-4.17
2017-09-17T01:11:23.860Z,-4.17
2017-09-17T01:12:19.059Z,-4.17
2017-09-17T01:13:12.988Z,-4.17
2017-09-17T01:14:13.040Z,-4.17
2017-09-17T01:15:12.981Z,-4.17
2017-09-17T01:16:08.181Z,-4.17
2017-09-17T01:17:02.107Z,-4.17
2017-09-17T01:18:02.097Z,-4.17
2017-09-17T01:18:57.220Z,-4.17
2017-09-17T01:19:57.210Z,-4.17
2017-09-17T01:20:57.264Z,-4.17
2017-09-17T01:22:03.272Z,-4.17
2017-09-17T01:22:58.294Z,-4.17
2017-09-17T01:23:58.336Z,-4.17
2017-09-17T01:24:58.309Z,-4.17
2017-09-17T01:25:58.353Z,-4.17
2017-09-17T01:26:53.337Z,-4.17
2017-09-17T01:27:59.377Z,-4.17
2017-09-17T01:28:54.402Z,-4.17
2017-09-17T01:29:48.429Z,-4.17
2017-09-17T01:30:48.485Z,-4.17
2017-09-17T01:31:48.569Z,-4.17
2017-09-17T01:32:43.501Z,-4.17
2017-09-17T01:33:37.552Z,-4.17
2017-09-17T01:34:37.557Z,-4.17
2017-09-17T01:35:32.577Z,-4.17
2017-09-17T01:36:27.704Z,-4.17
2017-09-17T01:37:28.657Z,-4.17
2017-09-17T01:38:28.653Z,-4.17
2017-09-17T01:39:28.736Z,-4.17
2017-09-17T01:40:23.749Z,-4.17
2017-09-17T01:41:17.818Z,-4.17
2017-09-17T01:42:17.775Z,-4.17
2017-09-17T01:43:12.834Z,-4.17
2017-09-17T01:44:12.940Z,-4.17
2017-09-17T01:45:06.879Z,-4.17
2017-09-17T01:46:06.944Z,-4.17
2017-09-17T01:47:01.935Z,-4.17
2017-09-17T01:47:57.154Z,-4.17
2017-09-17T01:48:57.043Z,-4.17
2017-09-17T01:49:52.068Z,-4.17
2017-09-17T01:50:47.080Z,-4.17
2017-09-17T01:51:53.094Z,-4.17
2017-09-17T01:52:47.136Z,-4.17
2017-09-17T01:53:47.146Z,-4.17
2017-09-17T01:54:42.528Z,-4.17
2017-09-17T01:55:42.229Z,-4.17
2017-09-17T01:56:36.251Z,-4.17
2017-09-17T01:57:36.269Z,-4.17
2017-09-17T01:58:31.339Z,-4.17
2017-09-17T01:59:26.466Z,-4.17
2017-09-17T02:00:26.427Z,-4.17
2017-09-17T02:01:21.558Z,-4.17
2017-09-17T02:02:16.531Z,-4.17
2017-09-17T02:03:16.463Z,-4.17
2017-09-17T02:04:11.583Z,-4.17
2017-09-17T02:05:11.530Z,-4.17
2017-09-17T02:06:11.549Z,-4.17
2017-09-17T02:07:17.574Z,-4.17
2017-09-17T02:08:12.598Z,-4.17
2017-09-17T02:09:12.569Z,-4.17
2017-09-17T02:10:07.667Z,-4.17
2017-09-17T02:11:03.473Z,-4.17
2017-09-17T02:12:02.680Z,-4.17
2017-09-17T02:12:57.757Z,-4.17
2017-09-17T02:13:52.739Z,-4.17
2017-09-17T02:14:53.802Z,-4.17
2017-09-17T02:15:54.768Z,-4.17
2017-09-17T02:16:49.862Z,-4.17
2017-09-17T02:17:43.854Z,-4.17
2017-09-17T02:18:44.918Z,-4.17
2017-09-17T02:19:39.951Z,-4.17
2017-09-17T02:20:33.969Z,-4.18
2017-09-17T02:21:34.013Z,-4.17
2017-09-17T02:22:29.182Z,-4.17
2017-09-17T02:23:29.099Z,-4.17
2017-09-17T02:24:23.050Z,-4.17
2017-09-17T02:25:23.124Z,-4.17
2017-09-17T02:26:18.157Z,-4.17
2017-09-17T02:27:18.178Z,-4.17
2017-09-17T02:28:18.240Z,-4.17
2017-09-17T02:29:18.558Z,-4.17
2017-09-17T02:30:18.242Z,-4.17
2017-09-17T02:31:24.267Z,-4.17
2017-09-17T02:32:19.289Z,-4.17
2017-09-17T02:33:19.704Z,-4.17
2017-09-17T02:34:14.361Z,-4.17
2017-09-17T02:35:09.346Z,-4.17
2017-09-17T02:36:10.390Z,-4.17
2017-09-17T02:37:10.463Z,-4.17
2017-09-17T02:38:10.446Z,-4.17
2017-09-17T02:39:05.549Z,-4.17
2017-09-17T02:39:59.564Z,-4.17
2017-09-17T02:40:59.562Z,-4.17
2017-09-17T02:41:54.603Z,-4.17
2017-09-17T02:42:54.579Z,-4.17
2017-09-17T02:43:54.675Z,-4.17
2017-09-17T02:44:54.881Z,-4.17
2017-09-17T02:45:48.668Z,-4.17
2017-09-17T02:46:48.728Z,-4.17
2017-09-17T02:47:43.743Z,-4.17
2017-09-17T02:48:43.741Z,-4.17
2017-09-17T02:49:37.797Z,-4.17
2017-09-17T02:50:37.863Z,-4.17
2017-09-17T02:51:32.851Z,-4.17
2017-09-17T02:52:27.911Z,-4.17
2017-09-17T02:53:28.924Z,-4.17
2017-09-17T02:54:28.988Z,-4.17
2017-09-17T02:55:23.978Z,-4.17
2017-09-17T02:56:30.026Z,-4.17
2017-09-17T02:57:25.040Z,-4.17
2017-09-17T02:58:19.105Z,-4.17
2017-09-17T02:59:19.031Z,-4.17
2017-09-17T03:00:19.157Z,-4.17
2017-09-17T03:01:14.159Z,-4.17
2017-09-17T03:02:08.231Z,-4.17
2017-09-17T03:03:08.184Z,-4.17
2017-09-17T03:04:03.274Z,-4.17
2017-09-17T03:05:09.278Z,-4.17
2017-09-17T03:06:04.318Z,-4.17
2017-09-17T03:06:58.311Z,-4.17
2017-09-17T03:07:59.482Z,-4.17
2017-09-17T03:08:54.405Z,-4.17
2017-09-17T03:09:48.400Z,-4.17
2017-09-17T03:10:48.479Z,-4.17
2017-09-17T03:11:43.496Z,-4.17
2017-09-17T03:12:43.621Z,-4.17
2017-09-17T03:13:37.771Z,-4.17
2017-09-17T03:14:37.574Z,-4.17
2017-09-17T03:15:32.575Z,-4.17
2017-09-17T03:16:27.636Z,-4.17
2017-09-17T03:17:27.681Z,-4.17
2017-09-17T03:18:33.686Z,-4.17
2017-09-17T03:19:33.903Z,-4.17
2017-09-17T03:20:27.730Z,-4.17
2017-09-17T03:21:27.750Z,-4.17
2017-09-17T03:22:27.779Z,-4.17
2017-09-17T03:23:22.813Z,-4.17
2017-09-17T03:24:16.987Z,-4.17
2017-09-17T03:25:18.248Z,-4.17
2017-09-17T03:26:17.911Z,-4.17
2017-09-17T03:27:17.971Z,-4.17
2017-09-17T03:28:12.984Z,-4.17
2017-09-17T03:29:12.979Z,-4.17
2017-09-17T03:30:13.040Z,-4.17
2017-09-17T03:31:07.082Z,-4.17
2017-09-17T03:32:08.090Z,-4.17
2017-09-17T03:33:08.087Z,-4.17
2017-09-17T03:34:08.182Z,-4.17
2017-09-17T03:35:03.589Z,-4.17
2017-09-17T03:35:57.180Z,-4.17
2017-09-17T03:36:57.262Z,-4.17
2017-09-17T03:37:52.264Z,-4.17
2017-09-17T03:38:47.341Z,-4.17
2017-09-17T03:39:47.354Z,-4.17
2017-09-17T03:40:42.356Z,-4.17
2017-09-17T03:41:37.378Z,-4.17
2017-09-17T03:42:37.447Z,-4.17
2017-09-17T03:43:32.522Z,-4.17
2017-09-17T03:44:27.474Z,-4.17
2017-09-17T03:45:28.483Z,-4.17
2017-09-17T03:46:28.541Z,-4.17
2017-09-17T03:47:28.525Z,-4.17
2017-09-17T03:48:23.672Z,-4.17
2017-09-17T03:49:18.012Z,-4.17
2017-09-17T03:50:17.638Z,-4.17
2017-09-17T03:51:12.677Z,-4.17
2017-09-17T03:52:12.690Z,-4.17
2017-09-17T03:53:06.772Z,-4.17
2017-09-17T03:54:07.224Z,-4.17
2017-09-17T03:55:02.004Z,-4.17
2017-09-17T03:55:56.831Z,-4.17
2017-09-17T03:56:57.863Z,-4.17
2017-09-17T03:57:57.881Z,-4.17
2017-09-17T03:58:52.899Z,-4.17
2017-09-17T03:59:52.968Z,-4.17
2017-09-17T04:00:46.987Z,-4.17
2017-09-17T04:01:47.167Z,-4.17
2017-09-17T04:02:42.052Z,-4.17
2017-09-17T04:03:37.087Z,-4.17
2017-09-17T04:04:37.060Z,-4.17
2017-09-17T04:05:32.174Z,-4.17
2017-09-17T04:06:27.153Z,-4.17
2017-09-17T04:07:27.174Z,-4.17
2017-09-17T04:08:22.202Z,-4.17
2017-09-17T04:09:17.542Z,-4.17
2017-09-17T04:10:18.495Z,-4.17
2017-09-17T04:11:18.299Z,-4.17
2017-09-17T04:12:18.328Z,-4.17
2017-09-17T04:13:13.348Z,-4.17
2017-09-17T04:14:07.352Z,-4.17
2017-09-17T04:15:07.746Z,-4.17
2017-09-17T04:16:02.437Z,-4.17
2017-09-17T04:17:02.456Z,-4.17
2017-09-17T04:17:56.491Z,-4.17
2017-09-17T04:18:56.541Z,-4.17
2017-09-17T04:19:51.569Z,-4.17
2017-09-17T04:20:46.572Z,-4.17
2017-09-17T04:21:46.588Z,-4.17
2017-09-17T04:22:41.655Z,-4.17
2017-09-17T04:23:36.685Z,-4.17
2017-09-17T04:24:37.687Z,-4.17
2017-09-17T04:25:37.724Z,-4.17
2017-09-17T04:26:37.736Z,-4.17
2017-09-17T04:27:32.773Z,-4.17
2017-09-17T04:28:26.876Z,-4.17
2017-09-17T04:29:26.842Z,-4.17
2017-09-17T04:30:21.910Z,-4.17
2017-09-17T04:31:21.885Z,-4.17
2017-09-17T04:32:15.979Z,-4.17
2017-09-17T04:33:16.325Z,-4.17
2017-09-17T04:34:10.958Z,-4.17
2017-09-17T04:35:06.508Z,-4.17
2017-09-17T04:36:06.019Z,-4.17
2017-09-17T04:37:01.098Z,-4.17
2017-09-17T04:38:01.089Z,-4.17
2017-09-17T04:39:01.119Z,-4.17
2017-09-17T04:40:01.186Z,-4.18
2017-09-17T04:40:55.124Z,-4.18
2017-09-17T04:41:55.175Z,-4.18
2017-09-17T04:42:50.265Z,-4.18
2017-09-17T04:43:45.317Z,-4.18
2017-09-17T04:44:51.311Z,-4.18
2017-09-17T04:45:45.364Z,-4.18
2017-09-17T04:46:45.389Z,-4.18
2017-09-17T04:47:40.359Z,-4.18
2017-09-17T04:48:40.396Z,-4.18
2017-09-17T04:49:34.429Z,-4.18
2017-09-17T04:50:34.469Z,-4.18
2017-09-17T04:51:29.537Z,-4.18
2017-09-17T04:52:24.556Z,-4.18
2017-09-17T04:53:24.570Z,-4.18
2017-09-17T04:54:19.943Z,-4.18
2017-09-17T04:55:14.647Z,-4.18
2017-09-17T04:56:15.659Z,-4.18
2017-09-17T04:57:16.158Z,-4.18
2017-09-17T04:58:10.720Z,-4.18
2017-09-17T04:59:16.745Z,-4.18
2017-09-17T05:00:11.800Z,-4.18
2017-09-17T05:01:05.771Z,-4.18
2017-09-17T05:02:05.844Z,-4.18
2017-09-17T05:03:00.906Z,-4.18
2017-09-17T05:04:00.884Z,-4.18
2017-09-17T05:05:01.880Z,-4.18
2017-09-17T05:06:01.862Z,-4.18
2017-09-17T05:07:02.176Z,-4.18
2017-09-17T05:08:01.990Z,-4.18
2017-09-17T05:09:02.000Z,-4.18
2017-09-17T05:10:02.088Z,-4.18
2017-09-17T05:11:02.056Z,-4.18
2017-09-17T05:12:02.094Z,-4.18
2017-09-17T05:13:08.167Z,-4.18
2017-09-17T05:14:08.129Z,-4.18
2017-09-17T05:15:09.250Z,-4.18
2017-09-17T05:16:10.175Z,-4.18
2017-09-17T05:17:04.249Z,-4.18
2017-09-17T05:18:04.264Z,-4.18
2017-09-17T05:18:59.482Z,-4.18
2017-09-17T05:19:59.278Z,-4.18
2017-09-17T05:21:00.305Z,-4.18
2017-09-17T05:22:01.416Z,-4.18
2017-09-17T05:23:01.443Z,-4.18
2017-09-17T05:24:01.445Z,-4.18
2017-09-17T05:24:55.438Z,-4.18
2017-09-17T05:25:55.495Z,-4.18
2017-09-17T05:26:50.476Z,-4.18
2017-09-17T05:27:45.537Z,-4.18
2017-09-17T05:28:45.546Z,-4.18
2017-09-17T05:29:45.617Z,-4.18
2017-09-17T05:30:45.615Z,-4.18
2017-09-17T05:31:45.647Z,-4.18
2017-09-17T05:32:39.680Z,-4.18
2017-09-17T05:33:40.662Z,-4.18
2017-09-17T05:34:40.709Z,-4.18
2017-09-17T05:35:35.833Z,-4.18
2017-09-17T05:36:35.904Z,-4.18
2017-09-17T05:37:36.820Z,-4.18
2017-09-17T05:38:36.898Z,-4.18
2017-09-17T05:39:36.853Z,-4.18
2017-09-17T05:40:36.861Z,-4.18
2017-09-17T05:41:36.892Z,-4.17
2017-09-17T05:42:37.048Z,-4.17
2017-09-17T05:43:37.022Z,-4.17
2017-09-17T05:44:36.991Z,-4.17
2017-09-17T05:45:37.037Z,-4.17
2017-09-17T05:46:37.043Z,-4.17
2017-09-17T05:47:37.063Z,-4.17
2017-09-17T05:48:37.135Z,-4.17
2017-09-17T05:49:43.167Z,-4.17
2017-09-17T05:50:38.233Z,-4.17
2017-09-17T05:51:32.168Z,-4.17
2017-09-17T05:52:33.266Z,-4.16
2017-09-17T05:53:34.301Z,-4.16
2017-09-17T05:54:29.211Z,-4.16
2017-09-17T05:55:29.378Z,-4.16
2017-09-17T05:56:29.368Z,-4.16
2017-09-17T05:57:29.403Z,-4.15
2017-09-17T05:58:29.395Z,-4.15
2017-09-17T05:59:29.386Z,-4.15
2017-09-17T06:00:29.463Z,-4.15
2017-09-17T06:01:29.482Z,-4.15
2017-09-17T06:02:29.538Z,-4.15
2017-09-17T06:03:29.579Z,-4.15
2017-09-17T06:04:29.563Z,-4.15
2017-09-17T06:05:29.603Z,-4.15
2017-09-17T06:06:29.653Z,-4.15
2017-09-17T06:07:29.701Z,-4.14
2017-09-17T06:08:29.696Z,-4.14
2017-09-17T06:09:29.692Z,-4.13
2017-09-17T06:10:35.953Z,-4.13
2017-09-17T06:11:30.809Z,-4.13
2017-09-17T06:12:24.818Z,-4.12
2017-09-17T06:13:24.865Z,-4.12
2017-09-17T06:14:19.901Z,-4.12
2017-09-17T06:15:14.903Z,-4.12
2017-09-17T06:16:14.993Z,-4.12
2017-09-17T06:17:09.976Z,-4.12
2017-09-17T06:18:05.027Z,-4.12
2017-09-17T06:18:59.067Z,-4.12
2017-09-17T06:20:00.147Z,-4.12
2017-09-17T06:20:55.187Z,-4.12
2017-09-17T06:21:55.195Z,-4.12
2017-09-17T06:22:55.168Z,-4.12
2017-09-17T06:23:55.236Z,-4.12
2017-09-17T06:24:55.423Z,-4.11
2017-09-17T06:25:55.287Z,-4.11
2017-09-17T06:26:55.319Z,-4.11
2017-09-17T06:27:55.707Z,-4.11
2017-09-17T06:28:55.376Z,-4.11
2017-09-17T06:29:55.429Z,-4.11
2017-09-17T06:31:01.484Z,-4.10
2017-09-17T06:31:56.511Z,-4.10
2017-09-17T06:32:56.538Z,-4.11
2017-09-17T06:33:56.596Z,-4.10
2017-09-17T06:34:56.613Z,-4.10
2017-09-17T06:35:56.641Z,-4.10
2017-09-17T06:36:50.717Z,-4.11
2017-09-17T06:37:38.894Z,-4.10
2017-09-17T06:38:26.784Z,-4.10
2017-09-17T06:39:21.953Z,-4.10
2017-09-17T06:40:16.868Z,-4.10
2017-09-17T06:41:16.901Z,-4.10
2017-09-17T06:42:12.311Z,-4.10
2017-09-17T06:43:07.009Z,-4.10
2017-09-17T06:44:06.961Z,-4.10
2017-09-17T06:45:02.063Z,-4.10
2017-09-17T06:45:57.053Z,-4.11
2017-09-17T06:46:51.135Z,-4.11
2017-09-17T06:47:51.162Z,-4.11
2017-09-17T06:48:46.177Z,-4.11
2017-09-17T06:49:46.256Z,-4.12
2017-09-17T06:50:47.274Z,-4.12
2017-09-17T06:51:41.382Z,-4.12
2017-09-17T06:52:41.410Z,-4.12
2017-09-17T06:53:36.664Z,-4.12
2017-09-17T06:54:31.428Z,-4.12
2017-09-17T06:55:25.509Z,-4.12
2017-09-17T06:56:25.636Z,-4.11
2017-09-17T06:57:20.581Z,-4.11
2017-09-17T06:58:15.582Z,-4.11
2017-09-17T06:59:15.683Z,-4.10
2017-09-17T07:00:10.695Z,-4.09
2017-09-17T07:01:05.760Z,-4.09
2017-09-17T07:02:00.131Z,-4.09
2017-09-17T07:03:00.803Z,-4.09
2017-09-17T07:03:56.158Z,-4.08
2017-09-17T07:04:55.941Z,-4.08
2017-09-17T07:05:55.955Z,-4.08
2017-09-17T07:06:43.972Z,-4.08
2017-09-17T07:07:38.217Z,-4.08
2017-09-17T07:08:39.100Z,-4.09
2017-09-17T07:09:39.181Z,-4.09
2017-09-17T07:10:39.189Z,-4.09
2017-09-17T07:11:39.255Z,-4.08
2017-09-17T07:12:39.224Z,-4.08
2017-09-17T07:13:39.558Z,-4.08
2017-09-17T07:14:39.338Z,-4.07
2017-09-17T07:15:39.425Z,-4.07
2017-09-17T07:16:27.461Z,-4.07
2017-09-17T07:17:15.502Z,-4.07
2017-09-17T07:18:09.539Z,-1.77
2017-09-17T07:19:09.664Z,7.44
2017-09-17T07:20:03.798Z,14.54
2017-09-17T07:20:58.849Z,19.33
2017-09-17T07:21:47.877Z,17.57
2017-09-17T07:22:36.784Z,15.60
2017-09-17T07:23:31.887Z,19.60
2017-09-17T07:24:31.821Z,-4.07
2017-09-17T07:25:38.149Z,-3.12
2017-09-17T07:26:38.070Z,0.35
2017-09-17T07:27:38.990Z,-4.09
2017-09-17T07:28:40.189Z,-4.09
2017-09-17T07:29:29.433Z,-4.10
2017-09-17T07:30:23.168Z,-4.10
2017-09-17T07:31:18.175Z,-4.11
2017-09-17T07:32:13.203Z,-4.11
2017-09-17T07:33:02.248Z,-4.12
2017-09-17T07:34:02.296Z,-4.13
2017-09-17T07:34:57.364Z,-4.13
2017-09-17T07:35:57.473Z,-4.13
2017-09-17T07:36:57.475Z,-4.13
2017-09-17T07:37:57.556Z,-4.13
2017-09-17T07:38:51.502Z,-4.13
2017-09-17T07:39:51.558Z,-4.13
2017-09-17T07:40:46.601Z,-4.13
2017-09-17T07:41:40.673Z,-4.13
2017-09-17T07:42:28.843Z,-4.13
2017-09-17T07:43:24.013Z,-4.14
2017-09-17T07:44:18.033Z,-4.14
2017-09-17T07:45:07.052Z,-4.14
2017-09-17T07:46:02.185Z,-4.15
2017-09-17T07:47:02.225Z,-4.16
2017-09-17T07:47:57.205Z,-4.16
2017-09-17T07:48:52.270Z,-4.16
2017-09-17T07:49:52.268Z,-4.16
2017-09-17T07:50:47.324Z,-4.16
2017-09-17T07:51:42.377Z,-4.16
2017-09-17T07:52:36.463Z,-4.16
2017-09-17T07:53:24.212Z,-4.16
2017-09-17T07:54:12.261Z,-4.16
2017-09-17T07:55:01.294Z,-4.16
2017-09-17T07:55:49.380Z,-4.16
2017-09-17T07:56:38.723Z,-4.17
2017-09-17T07:57:26.490Z,-4.16
2017-09-17T07:58:14.494Z,-4.17
2017-09-17T07:59:08.479Z,-4.17
2017-09-17T07:59:57.606Z,-4.17
2017-09-17T08:00:52.604Z,-4.16
2017-09-17T08:01:52.721Z,-4.16
2017-09-17T08:02:41.707Z,-4.15
2017-09-17T08:03:36.931Z,-4.14
2017-09-17T08:04:31.909Z,-4.13
2017-09-17T08:05:19.867Z,-4.12
2017-09-17T08:06:20.168Z,-4.10
2017-09-17T08:07:15.148Z,-4.10
2017-09-17T08:08:04.279Z,-4.09
2017-09-17T08:08:52.200Z,-4.09
2017-09-17T08:09:47.344Z,-4.08
2017-09-17T08:10:35.077Z,-4.08
2017-09-17T08:11:23.172Z,-4.07
2017-09-17T08:12:24.199Z,-4.07
2017-09-17T08:13:24.203Z,-4.07
2017-09-17T08:14:19.262Z,4.97
2017-09-17T08:15:14.297Z,11.17
2017-09-17T08:16:08.382Z,21.52
2017-09-17T08:17:02.729Z,15.62
2017-09-17T08:17:50.500Z,18.77
2017-09-17T08:18:39.548Z,24.84
2017-09-17T08:19:34.771Z,4.82
2017-09-17T08:20:23.726Z,21.31
2017-09-17T08:21:17.698Z,30.97
2017-09-17T08:22:11.695Z,29.94
2017-09-17T08:23:06.929Z,32.08
2017-09-17T08:23:54.941Z,19.20
2017-09-17T08:24:44.043Z,16.34
2017-09-17T08:25:38.133Z,26.07
2017-09-17T08:26:37.959Z,18.94
2017-09-17T08:27:43.989Z,29.13
2017-09-17T08:28:44.194Z,29.83
2017-09-17T08:29:33.358Z,29.54
2017-09-17T08:30:21.098Z,26.89
2017-09-17T08:31:21.351Z,34.45
2017-09-17T08:32:15.311Z,33.12
2017-09-17T08:33:03.303Z,34.23
2017-09-17T08:34:03.294Z,35.28
2017-09-17T08:34:58.664Z,17.10
2017-09-17T08:35:52.711Z,26.91
2017-09-17T08:36:47.602Z,28.69
2017-09-17T08:37:36.590Z,30.15
2017-09-17T08:38:30.562Z,35.53
2017-09-17T08:39:24.919Z,36.98
2017-09-17T08:40:13.965Z,32.97
2017-09-17T08:41:09.021Z,32.39
2017-09-17T08:41:57.096Z,31.41
2017-09-17T08:42:57.121Z,36.39
2017-09-17T08:43:46.160Z,29.89
2017-09-17T08:44:46.190Z,38.72
2017-09-17T08:45:41.309Z,35.87
2017-09-17T08:46:29.330Z,27.92
2017-09-17T08:47:23.301Z,20.13
2017-09-17T08:48:23.470Z,15.43
2017-09-17T08:49:18.517Z,-0.06
2017-09-17T08:50:12.537Z,-4.09
2017-09-17T08:51:07.542Z,-4.09
2017-09-17T08:51:55.582Z,-4.09
2017-09-17T08:52:55.683Z,-4.09
2017-09-17T08:53:55.748Z,-4.09
2017-09-17T08:54:44.793Z,2.61
2017-09-17T08:55:38.816Z,7.32
2017-09-17T08:56:32.817Z,4.03
2017-09-17T08:57:26.967Z,4.59
2017-09-17T08:58:20.975Z,25.36
2017-09-17T08:59:21.052Z,29.54
2017-09-17T09:00:16.030Z,33.74
2017-09-17T09:01:04.064Z,39.36
2017-09-17T09:01:58.210Z,42.03
2017-09-17T09:02:52.184Z,33.52
2017-09-17T09:03:46.276Z,30.17
2017-09-17T09:04:46.372Z,31.33
2017-09-17T09:05:41.379Z,30.53
2017-09-17T09:06:35.437Z,32.17
2017-09-17T09:07:29.493Z,28.15
2017-09-17T09:08:24.513Z,26.75
2017-09-17T09:09:18.621Z,27.00
2017-09-17T09:10:12.622Z,39.48
2017-09-17T09:11:07.697Z,38.12
2017-09-17T09:12:02.740Z,35.12
2017-09-17T09:12:56.805Z,32.42
2017-09-17T09:13:50.857Z,36.91
2017-09-17T09:14:44.838Z,36.79
2017-09-17T09:15:44.917Z,28.90
2017-09-17T09:16:39.007Z,13.42
2017-09-17T09:17:39.014Z,9.88
2017-09-17T09:18:39.099Z,0.58
2017-09-17T09:19:27.260Z,5.18
2017-09-17T09:20:21.135Z,15.35
2017-09-17T09:21:15.257Z,23.24
2017-09-17T09:22:09.304Z,20.12
2017-09-17T09:23:04.092Z,26.44
2017-09-17T09:23:58.084Z,20.52
2017-09-17T09:24:47.226Z,21.87
2017-09-17T09:25:35.202Z,17.60
2017-09-17T09:26:30.526Z,25.79
2017-09-17T09:27:18.402Z,16.38
2017-09-17T09:28:12.732Z,28.61
2017-09-17T09:29:06.551Z,16.62
2017-09-17T09:30:00.752Z,13.78
2017-09-17T09:30:54.660Z,19.26
2017-09-17T09:31:48.657Z,31.67
2017-09-17T09:32:36.744Z,40.33
2017-09-17T09:33:24.685Z,44.97
2017-09-17T09:34:20.076Z,44.28
2017-09-17T09:35:13.778Z,43.42
2017-09-17T09:36:01.942Z,39.65
2017-09-17T09:36:50.296Z,44.34
2017-09-17T09:37:45.206Z,48.85
2017-09-17T09:38:33.044Z,48.49
2017-09-17T09:39:33.374Z,47.86
2017-09-17T09:40:21.457Z,48.79
2017-09-17T09:41:10.484Z,48.44
2017-09-17T09:42:04.700Z,49.60
2017-09-17T09:42:53.630Z,49.95
2017-09-17T09:43:48.642Z,49.90
2017-09-17T09:44:37.727Z,49.67
2017-09-17T09:45:32.796Z,49.99
2017-09-17T09:46:26.819Z,49.70
2017-09-17T09:47:14.914Z,49.21
2017-09-17T09:48:02.994Z,50.65
2017-09-17T09:48:58.002Z,50.80
2017-09-17T09:49:52.040Z,50.22
2017-09-17T09:50:41.139Z,49.67
2017-09-17T09:51:35.181Z,50.03
2017-09-17T09:52:30.311Z,50.98
2017-09-17T09:53:30.254Z,51.08
2017-09-17T09:54:25.344Z,49.49
2017-09-17T09:55:13.379Z,47.44
2017-09-17T09:56:07.457Z,44.62
2017-09-17T09:57:01.521Z,42.92
2017-09-17T09:58:01.737Z,44.09
2017-09-17T09:58:49.595Z,43.94
2017-09-17T09:59:43.649Z,47.48
2017-09-17T10:00:38.713Z,43.22
2017-09-17T10:01:32.821Z,40.93
2017-09-17T10:02:26.787Z,38.77
2017-09-17T10:03:20.879Z,38.00
2017-09-17T10:04:15.920Z,29.94
2017-09-17T10:05:09.679Z,39.45
2017-09-17T10:05:59.010Z,38.25
2017-09-17T10:06:53.118Z,46.25
2017-09-17T10:07:48.126Z,48.69
2017-09-17T10:08:36.252Z,47.37
2017-09-17T10:09:30.307Z,50.15
2017-09-17T10:10:24.283Z,50.54
2017-09-17T10:11:18.364Z,49.65
2017-09-17T10:12:13.436Z,48.69
2017-09-17T10:13:02.479Z,46.98
2017-09-17T10:13:57.678Z,49.60
2017-09-17T10:14:51.593Z,47.26
2017-09-17T10:15:45.641Z,46.71
2017-09-17T10:16:39.654Z,47.81
2017-09-17T10:17:33.748Z,51.43
2017-09-17T10:18:21.817Z,50.74
2017-09-17T10:19:21.900Z,51.14
2017-09-17T10:20:10.934Z,49.86
2017-09-17T10:21:04.996Z,50.56
2017-09-17T10:22:04.983Z,46.82
2017-09-17T10:22:59.041Z,41.10
2017-09-17T10:24:00.070Z,38.20
2017-09-17T10:24:54.311Z,25.79
2017-09-17T10:25:49.173Z,12.18
2017-09-17T10:26:43.239Z,2.83
2017-09-17T10:27:43.338Z,-4.01
2017-09-17T10:28:32.249Z,-0.45
2017-09-17T10:29:21.404Z,-4.09
2017-09-17T10:30:15.404Z,-4.09
2017-09-17T10:31:10.291Z,1.53
2017-09-17T10:32:04.324Z,17.41
2017-09-17T10:32:59.342Z,29.38
2017-09-17T10:33:53.379Z,37.82
2017-09-17T10:34:47.766Z,46.85
2017-09-17T10:35:41.835Z,47.56
2017-09-17T10:36:36.921Z,49.70
2017-09-17T10:37:30.928Z,49.84
2017-09-17T10:38:19.032Z,49.07
2017-09-17T10:39:13.043Z,50.59
2017-09-17T10:40:01.077Z,50.15
2017-09-17T10:40:50.214Z,50.17
2017-09-17T10:41:45.264Z,49.85
2017-09-17T10:42:39.314Z,48.03
2017-09-17T10:43:34.321Z,48.77
2017-09-17T10:44:29.420Z,49.87
2017-09-17T10:45:18.358Z,50.15
2017-09-17T10:46:18.166Z,51.04
2017-09-17T10:47:12.192Z,50.79
2017-09-17T10:48:13.583Z,50.72
2017-09-17T10:49:13.634Z,50.63
2017-09-17T10:50:02.743Z,50.90
2017-09-17T10:50:56.762Z,50.01
2017-09-17T10:51:51.789Z,48.04
2017-09-17T10:52:45.862Z,44.80
2017-09-17T10:53:45.941Z,40.45
2017-09-17T10:54:40.989Z,35.56
2017-09-17T10:55:30.011Z,26.71
2017-09-17T10:56:30.012Z,26.47
2017-09-17T10:57:24.080Z,25.75
2017-09-17T10:58:24.074Z,36.70
2017-09-17T10:59:19.223Z,39.34
2017-09-17T11:00:13.228Z,47.76
2017-09-17T11:01:07.377Z,47.11
2017-09-17T11:02:02.347Z,46.91
2017-09-17T11:03:02.457Z,46.21
2017-09-17T11:04:02.531Z,44.10
2017-09-17T11:04:51.549Z,42.55
2017-09-17T11:05:51.544Z,41.62
2017-09-17T11:06:51.608Z,29.34
2017-09-17T11:07:45.651Z,25.52
2017-09-17T11:08:45.695Z,27.03
2017-09-17T11:09:45.758Z,30.17
2017-09-17T11:10:45.753Z,26.77
2017-09-17T11:11:39.875Z,18.43
2017-09-17T11:12:28.891Z,12.52
2017-09-17T11:13:28.888Z,19.08
2017-09-17T11:14:23.026Z,11.50
2017-09-17T11:15:17.061Z,14.07
2017-09-17T11:16:06.076Z,21.83
2017-09-17T11:16:55.140Z,21.54
2017-09-17T11:17:49.121Z,22.66
2017-09-17T11:18:38.245Z,15.75
2017-09-17T11:19:38.313Z,19.99
2017-09-17T11:20:32.272Z,17.84
2017-09-17T11:21:26.318Z,20.79
2017-09-17T11:22:15.392Z,15.72
2017-09-17T11:23:10.437Z,11.89
2017-09-17T11:24:04.466Z,18.59
2017-09-17T11:24:58.592Z,14.47
2017-09-17T11:25:52.655Z,17.42
2017-09-17T11:26:41.666Z,21.75
2017-09-17T11:27:35.696Z,31.59
2017-09-17T11:28:35.446Z,27.27
2017-09-17T11:29:30.882Z,29.30
2017-09-17T11:30:24.660Z,27.21
2017-09-17T11:31:24.701Z,28.30
2017-09-17T11:32:19.681Z,34.28
2017-09-17T11:33:14.739Z,31.35
2017-09-17T11:34:14.910Z,38.68
2017-09-17T11:35:09.752Z,28.72
2017-09-17T11:36:04.889Z,33.76
2017-09-17T11:36:52.948Z,28.85
2017-09-17T11:37:52.931Z,28.07
2017-09-17T11:38:47.001Z,24.10
2017-09-17T11:39:41.100Z,21.37
2017-09-17T11:40:35.099Z,34.40
2017-09-17T11:41:35.201Z,24.93
2017-09-17T11:42:24.205Z,19.53
2017-09-17T11:43:24.224Z,29.87
2017-09-17T11:44:18.433Z,27.70
2017-09-17T11:45:12.585Z,23.72
2017-09-17T11:46:12.394Z,23.12
2017-09-17T11:47:06.410Z,41.09
2017-09-17T11:48:06.450Z,42.86
2017-09-17T11:49:01.501Z,43.49
2017-09-17T11:49:55.563Z,43.72
2017-09-17T11:50:49.571Z,47.59
2017-09-17T11:51:37.633Z,48.14
2017-09-17T11:52:26.763Z,41.00
2017-09-17T11:53:20.765Z,39.11
2017-09-17T11:54:14.765Z,44.31
2017-09-17T11:55:14.840Z,37.92
2017-09-17T11:56:02.875Z,30.85
2017-09-17T11:56:57.998Z,42.32
2017-09-17T11:57:53.020Z,44.20
2017-09-17T11:58:42.070Z,43.78
2017-09-17T11:59:36.378Z,41.30
2017-09-17T12:00:25.333Z,41.34
2017-09-17T12:01:25.181Z,49.74
2017-09-17T12:02:20.191Z,48.56
2017-09-17T12:03:09.281Z,51.40
2017-09-17T12:03:58.286Z,49.47
2017-09-17T12:04:52.361Z,51.04
2017-09-17T12:05:46.411Z,50.78